Time;durP1;ratioP1;P1;durP2;ratioP2;P2;SDS_P1;SDS_P2;PMS_P1;PMS_P2;Temp;Humidity;BMP_temperature;BMP_pressure;BME280_temperature;BME280_humidity;BME280_pressure;Samples;Min_cycle;Max_cycle;Signal;HPM_P1;HPM_P2
2022/02/04 00:20:04;;;;;;;36.10;25.88;;;8.70;99.90;;;;;;5081667;28;20382;-83
2022/02/04 00:20:34;;;;;;;34.85;25.25;;;8.70;99.90;;;;;;5093303;28;20057;-83
2022/02/04 00:23:08;;;;;;;33.05;24.58;;;8.70;99.90;;;;;;5069333;28;20088;-85
2022/02/04 00:28:09;;;;;;;33.83;23.27;;;8.70;99.90;;;;;;5087267;28;20373;-84
2022/02/04 00:30:41;;;;;;;32.25;23.98;;;8.70;99.90;;;;;;5074744;28;20030;-83
2022/02/04 00:33:16;;;;;;;34.08;25.60;;;8.70;99.90;;;;;;5073248;28;20066;-84
2022/02/04 00:38:20;;;;;;;33.83;24.75;;;8.70;99.90;;;;;;5094319;28;20072;-84
2022/02/04 00:40:50;;;;;;;34.10;24.35;;;8.70;99.90;;;;;;5089134;28;20024;-84
2022/02/04 00:43:17;;;;;;;33.63;25.13;;;8.70;99.90;;;;;;5088160;28;20036;-84
2022/02/04 00:45:50;;;;;;;34.08;25.50;;;8.70;99.90;;;;;;5071153;28;20051;-86
2022/02/04 00:50:58;;;;;;;31.55;24.05;;;8.70;99.90;;;;;;5076392;28;20039;-84
2022/02/04 01:28:25;;;;;;;34.58;24.58;;;8.70;99.90;;;;;;5076139;28;20043;-90
2022/02/04 01:30:53;;;;;;;33.03;23.42;;;8.70;99.90;;;;;;5092391;28;20105;-83
2022/02/04 01:33:19;;;;;;;34.25;24.00;;;8.70;99.90;;;;;;5069784;28;20052;-83
2022/02/04 01:35:45;;;;;;;32.15;23.05;;;8.70;99.90;;;;;;5090001;28;20036;-83
2022/02/04 01:38:11;;;;;;;31.42;22.65;;;8.70;99.90;;;;;;5071724;28;20028;-83
2022/02/04 01:40:36;;;;;;;29.70;21.70;;;8.70;99.90;;;;;;5057450;28;20031;-83
2022/02/04 01:43:02;;;;;;;30.92;21.55;;;8.70;99.90;;;;;;5092118;28;20016;-84
2022/02/04 01:45:28;;;;;;;29.60;20.73;;;8.70;99.90;;;;;;5091602;28;20039;-85
2022/02/04 01:47:56;;;;;;;30.33;21.50;;;8.70;99.90;;;;;;5073899;28;20028;-85
2022/02/04 01:50:23;;;;;;;29.23;20.27;;;8.70;99.90;;;;;;5091652;28;20058;-84
2022/02/04 01:52:50;;;;;;;28.25;20.45;;;8.70;99.90;;;;;;5056241;28;20036;-83
2022/02/04 01:55:16;;;;;;;29.35;21.00;;;8.70;99.90;;;;;;5073697;28;20032;-84
2022/02/04 01:57:43;;;;;;;28.40;19.55;;;8.70;99.90;;;;;;5091354;28;20028;-85
2022/02/04 02:00:09;;;;;;;26.85;18.77;;;8.70;99.90;;;;;;5084645;28;20025;-84
2022/02/04 02:02:35;;;;;;;24.35;18.52;;;8.70;99.90;;;;;;5073508;28;20416;-83
2022/02/04 02:05:01;;;;;;;26.75;19.23;;;8.70;99.90;;;;;;5070015;28;20036;-87
2022/02/04 02:07:28;;;;;;;28.48;18.80;;;8.70;99.90;;;;;;5047354;28;20128;-83
2022/02/04 02:09:59;;;;;;;24.38;18.58;;;8.70;99.90;;;;;;5090591;28;20090;-83
2022/02/04 02:12:30;;;;;;;25.23;17.25;;;8.70;99.90;;;;;;5067160;28;20016;-82
2022/02/04 02:15:07;;;;;;;24.95;18.40;;;8.70;99.90;;;;;;5074305;28;20469;-86
2022/02/04 02:39:29;;;;;;;23.27;15.85;;;8.70;99.90;;;;;;5051242;28;20040;-83
2022/02/04 02:44:53;;;;;;;22.35;15.20;;;8.70;99.90;;;;;;5090939;28;20526;-83
2022/02/04 02:52:20;;;;;;;19.52;13.32;;;8.70;99.90;;;;;;5070729;28;20123;-83
2022/02/04 03:00:23;;;;;;;21.63;13.60;;;8.70;99.90;;;;;;5067900;28;20104;-84
2022/02/04 03:02:49;;;;;;;18.52;12.02;;;8.70;99.90;;;;;;5061031;28;20385;-85
2022/02/04 03:05:15;;;;;;;21.17;13.88;;;8.70;99.90;;;;;;5077770;28;20036;-87
2022/02/04 03:07:41;;;;;;;22.30;13.85;;;8.70;99.90;;;;;;5058732;28;20033;-83
2022/02/04 03:10:07;;;;;;;18.77;13.23;;;8.70;99.90;;;;;;5073481;28;20073;-84
2022/02/04 03:12:32;;;;;;;25.73;13.50;;;8.70;99.90;;;;;;5095776;28;20085;-83
2022/02/04 03:14:58;;;;;;;22.27;14.05;;;8.70;99.90;;;;;;5063563;28;20036;-84
2022/02/04 03:17:25;;;;;;;18.38;12.95;;;8.70;99.90;;;;;;5077112;28;20029;-83
2022/02/04 03:19:56;;;;;;;19.35;12.48;;;8.70;99.90;;;;;;5060488;28;20136;-82
2022/02/04 03:22:22;;;;;;;16.85;11.85;;;8.70;99.90;;;;;;5074685;28;20108;-84
2022/02/04 03:24:56;;;;;;;20.38;12.90;;;8.70;99.90;;;;;;5078182;28;20110;-84
2022/02/04 03:27:23;;;;;;;19.65;12.60;;;8.70;99.90;;;;;;5077404;28;20024;-85
2022/02/04 03:30:09;;;;;;;16.08;11.38;;;8.70;99.90;;;;;;5060246;28;20245;-84
2022/02/04 03:32:40;;;;;;;18.67;12.15;;;8.70;99.90;;;;;;5059214;28;20021;-87
2022/02/04 03:35:06;;;;;;;17.77;12.05;;;8.70;99.90;;;;;;5084168;28;20345;-84
2022/02/04 03:37:31;;;;;;;18.20;12.35;;;8.70;99.90;;;;;;5060407;28;20484;-85
2022/02/04 03:39:57;;;;;;;17.65;11.98;;;8.70;99.90;;;;;;5060071;28;20031;-85
2022/02/04 03:42:22;;;;;;;17.50;11.38;;;8.70;99.90;;;;;;5076149;28;20202;-83
2022/02/04 03:44:49;;;;;;;18.58;12.48;;;8.80;99.90;;;;;;5076968;28;20157;-83
2022/02/04 03:47:15;;;;;;;16.83;10.88;;;8.70;99.90;;;;;;5053212;28;20027;-82
2022/02/04 03:49:40;;;;;;;17.33;10.60;;;8.70;99.90;;;;;;5075568;28;20028;-81
2022/02/04 03:52:06;;;;;;;16.30;10.55;;;8.70;99.90;;;;;;5089405;28;20026;-83
2022/02/04 03:54:32;;;;;;;16.98;10.88;;;8.70;99.90;;;;;;5058722;28;20024;-83
2022/02/04 03:56:57;;;;;;;15.38;10.13;;;8.70;99.90;;;;;;5075858;28;20039;-83
2022/02/04 03:59:26;;;;;;;15.48;10.48;;;8.70;99.90;;;;;;5092918;28;20035;-83
2022/02/04 04:01:53;;;;;;;15.07;10.13;;;8.70;99.90;;;;;;5067484;28;20073;-85
2022/02/04 04:04:18;;;;;;;17.40;10.43;;;8.70;99.90;;;;;;5056815;28;20047;-83
2022/02/04 04:06:44;;;;;;;17.35;11.27;;;8.70;99.90;;;;;;5070907;28;20025;-83
2022/02/04 04:09:09;;;;;;;15.13;10.32;;;8.70;99.90;;;;;;5071441;28;20468;-84
2022/02/04 04:11:40;;;;;;;16.95;10.52;;;8.70;99.90;;;;;;5038235;28;20199;-83
2022/02/04 04:14:05;;;;;;;14.50;9.88;;;8.70;99.90;;;;;;5071762;28;20039;-84
2022/02/04 04:16:31;;;;;;;19.63;10.70;;;8.70;99.90;;;;;;5070120;28;20393;-84
2022/02/04 04:18:57;;;;;;;14.90;9.75;;;8.70;99.90;;;;;;5054216;28;20468;-83
2022/02/04 04:21:22;;;;;;;16.15;9.88;;;8.70;99.90;;;;;;5089666;28;20031;-83
2022/02/04 04:23:48;;;;;;;15.18;8.73;;;8.70;99.90;;;;;;5059020;28;20441;-83
2022/02/04 04:26:13;;;;;;;15.82;9.63;;;8.70;99.90;;;;;;5071417;28;20081;-84
2022/02/04 04:28:40;;;;;;;15.73;9.95;;;8.70;99.90;;;;;;5075639;28;20028;-85
2022/02/04 04:31:07;;;;;;;13.18;9.18;;;8.80;99.90;;;;;;5068013;28;20036;-86
2022/02/04 04:33:33;;;;;;;14.13;9.90;;;8.80;99.90;;;;;;5048900;28;20085;-86
2022/02/04 04:35:58;;;;;;;12.80;8.70;;;8.70;99.90;;;;;;5046747;28;20024;-84
2022/02/04 04:38:33;;;;;;;14.18;8.93;;;8.80;99.90;;;;;;5058427;28;20051;-83
2022/02/04 05:29:35;;;;;;;10.38;6.43;;;8.70;99.90;;;;;;5091718;28;20032;-86
2022/02/04 05:32:00;;;;;;;11.05;7.03;;;8.80;99.90;;;;;;5051938;28;20175;-86
2022/02/04 05:34:26;;;;;;;10.95;6.70;;;8.70;99.90;;;;;;5045911;28;20087;-87
2022/02/04 05:37:01;;;;;;;9.88;6.32;;;8.80;99.90;;;;;;5057105;28;20513;-84
2022/02/04 05:39:32;;;;;;;10.27;6.40;;;8.70;99.90;;;;;;5069611;28;20054;-84
2022/02/04 05:41:58;;;;;;;12.40;6.60;;;8.70;99.90;;;;;;5092193;28;20067;-85
2022/02/04 05:44:24;;;;;;;11.43;6.53;;;8.80;99.90;;;;;;5066627;28;20090;-83
2022/02/04 05:46:54;;;;;;;10.50;5.85;;;8.70;99.90;;;;;;5090398;28;20150;-84
2022/02/04 05:49:22;;;;;;;12.15;6.70;;;8.70;99.90;;;;;;5071547;28;20028;-84
2022/02/04 05:52:08;;;;;;;11.25;6.13;;;8.80;99.90;;;;;;5082633;28;20036;-83
2022/02/04 05:57:19;;;;;;;12.73;6.78;;;8.80;99.90;;;;;;5092430;28;20032;-83
2022/02/04 06:00:14;;;;;;;9.57;5.53;;;8.80;99.90;;;;;;5078729;28;20028;-83
2022/02/04 06:02:48;;;;;;;10.07;5.70;;;8.80;99.90;;;;;;5064199;28;20373;-83
2022/02/04 06:05:26;;;;;;;11.73;5.25;;;8.80;99.90;;;;;;5072665;28;20028;-84
2022/02/04 06:24:03;;;;;;;11.93;5.45;;;8.80;99.90;;;;;;5089179;28;20047;-93
2022/02/04 06:26:30;;;;;;;8.90;5.10;;;8.70;99.90;;;;;;5089065;28;20005;-93
2022/02/04 06:28:57;;;;;;;7.90;5.25;;;8.70;99.90;;;;;;5084332;28;20004;-93
2022/02/04 06:31:22;;;;;;;7.90;5.15;;;8.80;99.90;;;;;;5094341;28;20027;-89
2022/02/04 06:33:48;;;;;;;7.55;4.55;;;8.70;99.90;;;;;;5088697;28;20538;-85
2022/02/04 06:36:14;;;;;;;9.60;4.93;;;8.70;99.90;;;;;;5066798;28;20056;-85
2022/02/04 06:38:40;;;;;;;10.00;4.72;;;8.70;99.90;;;;;;5074461;28;20487;-84
2022/02/04 06:41:05;;;;;;;10.43;4.63;;;8.70;99.90;;;;;;5073514;28;20177;-87
2022/02/04 06:43:32;;;;;;;9.80;4.78;;;8.70;99.90;;;;;;5051778;28;20036;-86
2022/02/04 06:45:58;;;;;;;6.15;3.92;;;8.70;99.90;;;;;;5073346;28;20028;-85
2022/02/04 06:48:23;;;;;;;8.35;4.38;;;8.70;99.90;;;;;;5056913;28;20464;-85
2022/02/04 06:50:49;;;;;;;6.85;4.30;;;8.70;99.90;;;;;;5070132;28;20024;-85
2022/02/04 06:53:15;;;;;;;8.50;4.20;;;8.70;99.90;;;;;;5063594;28;20025;-85
2022/02/04 06:55:41;;;;;;;8.23;4.07;;;8.70;99.90;;;;;;5055734;28;20036;-85
2022/02/04 06:58:07;;;;;;;7.43;4.35;;;8.70;99.90;;;;;;5056501;28;20031;-85
2022/02/04 07:00:33;;;;;;;6.70;3.60;;;8.70;99.90;;;;;;5059266;28;20029;-84
2022/02/04 07:02:59;;;;;;;6.15;3.83;;;8.70;99.90;;;;;;5091307;28;20016;-84
2022/02/04 07:05:38;;;;;;;6.75;3.70;;;8.70;99.90;;;;;;5057946;28;20352;-84
2022/02/04 07:14:32;;;;;;;6.57;4.57;;;8.70;99.90;;;;;;5072769;28;20039;-83
2022/02/04 07:17:27;;;;;;;7.55;4.80;;;8.70;99.90;;;;;;5054734;28;20457;-85
2022/02/04 07:19:55;;;;;;;5.63;4.13;;;8.70;99.90;;;;;;5059023;28;20441;-84
2022/02/04 07:22:31;;;;;;;7.43;4.22;;;8.80;99.90;;;;;;5060730;28;20032;-84
2022/02/04 07:25:00;;;;;;;6.22;3.70;;;8.70;99.90;;;;;;5089562;28;20198;-83
2022/02/04 07:27:31;;;;;;;6.40;3.78;;;8.80;99.90;;;;;;5072401;28;20476;-84
2022/02/04 07:29:57;;;;;;;6.55;3.72;;;8.70;99.90;;;;;;5070545;28;20473;-84
2022/02/04 07:32:32;;;;;;;7.28;4.25;;;8.80;99.90;;;;;;5090856;28;20059;-84
2022/02/04 07:43:05;;;;;;;11.38;4.28;;;8.80;99.90;;;;;;5075487;28;20031;-84
2022/02/04 07:45:34;;;;;;;5.38;3.92;;;8.80;99.90;;;;;;5095019;28;20040;-83
2022/02/04 07:48:00;;;;;;;6.85;4.10;;;8.70;99.90;;;;;;5067264;28;20024;-84
2022/02/04 07:50:26;;;;;;;7.15;4.10;;;8.80;99.90;;;;;;5094960;28;20116;-84
2022/02/04 07:52:54;;;;;;;6.43;4.32;;;8.80;99.90;;;;;;5070204;28;20114;-84
2022/02/04 07:55:20;;;;;;;7.20;4.55;;;8.80;99.90;;;;;;5068809;28;20058;-84
2022/02/04 07:57:46;;;;;;;6.75;4.28;;;8.70;99.90;;;;;;5093326;28;20407;-87
2022/02/04 08:00:16;;;;;;;7.72;4.95;;;8.70;99.90;;;;;;5074657;28;20024;-83
2022/02/04 08:02:46;;;;;;;6.82;4.22;;;8.70;99.90;;;;;;5092872;28;20149;-84
2022/02/04 08:05:18;;;;;;;7.85;4.60;;;8.70;99.90;;;;;;5093797;28;20038;-83
2022/02/04 08:07:57;;;;;;;7.55;4.65;;;8.70;99.90;;;;;;5086089;28;20020;-83
2022/02/04 08:15:46;;;;;;;8.43;4.63;;;8.80;99.90;;;;;;5094113;28;20039;-84
2022/02/04 08:24:09;;;;;;;9.20;5.05;;;8.80;99.90;;;;;;5070321;28;20044;-83
2022/02/04 08:56:03;;;;;;;11.10;5.75;;;8.80;99.90;;;;;;5049622;28;20032;-83
2022/02/04 09:01:29;;;;;;;9.15;5.82;;;8.80;99.90;;;;;;5055611;28;20041;-83
2022/02/04 09:04:11;;;;;;;7.53;5.22;;;8.80;99.90;;;;;;5026084;28;20044;-83
2022/02/04 09:06:40;;;;;;;8.48;6.40;;;8.80;99.90;;;;;;5059592;28;20082;-83
2022/02/04 09:09:12;;;;;;;9.02;6.47;;;8.80;99.90;;;;;;5057282;28;20024;-83
2022/02/04 09:11:42;;;;;;;9.85;5.88;;;8.90;99.90;;;;;;5057519;28;20025;-84
2022/02/04 09:19:45;;;;;;;6.85;5.13;;;8.90;99.90;;;;;;5074723;28;20103;-84
2022/02/04 09:24:43;;;;;;;9.77;5.32;;;9.10;99.90;;;;;;5074697;28;20052;-83
2022/02/04 09:27:09;;;;;;;8.68;6.65;;;9.00;99.90;;;;;;5057606;28;20029;-84
2022/02/04 09:29:35;;;;;;;9.13;5.65;;;9.10;99.90;;;;;;5039997;28;20032;-83
2022/02/04 09:32:00;;;;;;;7.65;5.57;;;9.10;99.90;;;;;;5074941;28;20388;-83
2022/02/04 09:34:26;;;;;;;7.22;5.85;;;9.10;99.90;;;;;;5074469;28;20060;-84
2022/02/04 09:36:52;;;;;;;8.65;6.47;;;9.00;99.90;;;;;;5056097;28;20134;-83
2022/02/04 09:39:17;;;;;;;8.55;5.85;;;9.00;99.90;;;;;;5062867;28;20024;-91
2022/02/04 09:41:43;;;;;;;8.18;5.22;;;9.00;99.90;;;;;;5053448;28;20047;-83
2022/02/04 09:44:09;;;;;;;8.02;6.00;;;8.90;99.90;;;;;;5055965;28;20039;-82
2022/02/04 09:46:37;;;;;;;11.50;5.95;;;8.90;99.90;;;;;;5074834;28;20082;-83
2022/02/04 09:49:06;;;;;;;9.18;5.93;;;8.90;99.90;;;;;;5068551;28;20119;-83
2022/02/04 09:51:50;;;;;;;7.43;5.40;;;8.90;99.90;;;;;;5066595;28;20017;-82
2022/02/04 10:08:42;;;;;;;;;;;8.90;99.90;;;;;;5066829;28;20110;-84
2022/02/04 10:13:56;;;;;;;7.80;5.93;;;9.00;99.90;;;;;;5073601;28;20116;-84
2022/02/04 10:19:29;;;;;;;7.13;5.55;;;9.10;99.90;;;;;;4952920;29;20035;-86
2022/02/04 10:21:59;;;;;;;7.13;5.53;;;9.10;99.90;;;;;;4921255;29;20131;-84
2022/02/04 10:24:27;;;;;;;6.45;5.10;;;9.10;99.90;;;;;;5013446;28;20113;-83
2022/02/04 10:27:12;;;;;;;7.18;5.05;;;9.20;99.90;;;;;;5055483;28;20063;-84
2022/02/04 10:29:40;;;;;;;6.90;4.15;;;9.20;99.90;;;;;;5073087;28;20036;-85
2022/02/04 10:32:06;;;;;;;6.00;4.25;;;9.20;99.90;;;;;;5038414;28;20036;-83
2022/02/04 10:34:33;;;;;;;6.45;4.13;;;9.20;99.90;;;;;;5051086;28;20049;-83
2022/02/04 10:42:12;;;;;;;6.22;4.30;;;9.20;99.90;;;;;;5053325;28;20033;-82
2022/02/04 10:44:53;;;;;;;5.32;4.10;;;9.20;99.90;;;;;;5051452;28;20498;-83
2022/02/04 10:51:33;;;;;;;5.25;3.63;;;9.10;99.90;;;;;;5043833;28;20025;-83
2022/02/04 11:04:23;;;;;;;4.95;4.03;;;9.10;99.90;;;;;;5058091;28;20044;-83
2022/02/04 11:09:48;;;;;;;5.28;4.15;;;9.20;99.90;;;;;;5060874;28;20044;-84
2022/02/04 11:35:13;;;;;;;5.78;3.67;;;9.30;99.90;;;;;;5063087;28;20080;-84
2022/02/04 11:55:10;;;;;;;4.97;3.20;;;9.50;99.90;;;;;;5050561;28;20029;-86
2022/02/04 11:57:39;;;;;;;6.88;3.40;;;9.50;99.90;;;;;;5063739;28;20072;-84
2022/02/04 12:00:18;;;;;;;5.30;3.38;;;9.60;99.90;;;;;;5045630;28;20108;-84
2022/02/04 12:02:49;;;;;;;4.75;3.15;;;9.60;99.90;;;;;;5066045;28;20067;-86
2022/02/04 12:05:18;;;;;;;4.97;3.20;;;9.60;99.90;;;;;;5049677;28;20327;-84
2022/02/04 12:07:51;;;;;;;3.85;2.63;;;9.60;99.90;;;;;;5064793;28;20373;-84
2022/02/04 12:10:27;;;;;;;5.00;2.97;;;9.60;99.90;;;;;;5049539;28;20028;-83
2022/02/04 12:12:55;;;;;;;4.13;3.03;;;9.60;99.90;;;;;;5069500;28;20052;-83
2022/02/04 12:15:35;;;;;;;4.35;2.88;;;9.70;99.90;;;;;;5064187;28;20481;-83
2022/02/04 12:18:02;;;;;;;5.07;2.85;;;9.70;99.90;;;;;;5045493;28;20035;-84
2022/02/04 12:20:46;;;;;;;4.65;2.83;;;9.70;99.90;;;;;;5069853;28;20095;-84
2022/02/04 12:23:35;;;;;;;4.88;2.70;;;9.80;99.90;;;;;;5060352;28;20021;-84
2022/02/04 12:26:01;;;;;;;6.03;3.13;;;9.70;99.90;;;;;;5065835;28;20517;-84
2022/02/04 12:28:42;;;;;;;4.57;2.75;;;9.80;99.90;;;;;;5045272;28;20048;-84
2022/02/04 12:31:09;;;;;;;;;;;9.80;99.90;;;;;;5052950;28;20024;-83
2022/02/04 12:33:45;;;;;;;5.07;3.05;;;9.80;99.90;;;;;;5061840;28;19913;-84
2022/02/04 12:36:18;;;;;;;4.63;3.15;;;9.80;99.90;;;;;;5065109;28;20396;-85
2022/02/04 12:38:46;;;;;;;4.65;3.00;;;9.80;99.90;;;;;;5066408;28;20024;-84
2022/02/04 12:41:24;;;;;;;3.50;2.40;;;9.70;99.90;;;;;;5075663;28;20111;-85
2022/02/04 12:43:53;;;;;;;4.55;2.97;;;9.70;99.90;;;;;;5075718;28;20487;-85
2022/02/04 12:46:19;;;;;;;4.78;3.15;;;9.80;99.90;;;;;;5095255;28;20103;-84
2022/02/04 12:49:06;;;;;;;4.07;2.67;;;9.80;99.90;;;;;;5076959;28;20017;-85
2022/02/04 12:51:43;;;;;;;5.53;2.95;;;9.80;99.90;;;;;;5095206;28;20024;-84
2022/02/04 12:54:10;;;;;;;4.35;2.70;;;9.70;99.90;;;;;;5076905;28;20031;-84
2022/02/04 12:57:15;;;;;;;4.82;2.60;;;9.80;99.90;;;;;;5060859;28;20031;-84
2022/02/04 13:02:07;;;;;;;4.57;2.53;;;9.80;99.90;;;;;;5094738;28;20077;-84
2022/02/04 13:10:27;;;;;;;4.40;2.70;;;9.80;99.90;;;;;;5080673;28;20036;-85
2022/02/04 13:12:56;;;;;;;9.90;2.30;;;9.80;99.90;;;;;;5094734;28;20016;-84
2022/02/04 13:15:22;;;;;;;4.80;2.42;;;9.80;99.90;;;;;;5076267;28;20087;-84
2022/02/04 13:17:49;;;;;;;3.47;2.25;;;9.90;99.90;;;;;;5059898;28;20020;-84
2022/02/04 13:20:19;;;;;;;4.18;2.33;;;9.80;99.90;;;;;;5094192;28;20032;-84
2022/02/04 13:22:44;;;;;;;5.20;2.67;;;9.80;99.90;;;;;;5076280;28;20024;-84
2022/02/04 13:25:14;;;;;;;3.40;2.20;;;9.80;99.90;;;;;;5075718;28;20782;-83
2022/02/04 13:28:03;;;;;;;5.60;2.60;;;9.80;99.90;;;;;;5065631;28;20048;-84
2022/02/04 13:30:34;;;;;;;4.80;2.47;;;9.80;99.90;;;;;;5076688;28;20017;-84
2022/02/04 13:33:01;;;;;;;3.95;2.33;;;9.90;99.90;;;;;;5068199;28;20016;-84
2022/02/04 13:35:36;;;;;;;7.10;2.40;;;9.80;99.90;;;;;;5071728;28;20572;-88
2022/02/04 13:38:12;;;;;;;4.80;2.50;;;9.80;99.90;;;;;;5064195;28;20049;-83
2022/02/04 13:41:19;;;;;;;4.00;2.47;;;9.90;99.90;;;;;;5070710;28;20024;-83
2022/02/04 13:44:19;;;;;;;4.43;2.58;;;9.90;99.90;;;;;;5061745;28;20033;-84
2022/02/04 13:46:52;;;;;;;6.80;3.05;;;9.80;99.90;;;;;;5080823;28;20028;-84
2022/02/04 13:52:15;;;;;;;5.28;2.97;;;9.70;99.90;;;;;;5052990;28;20039;-83
2022/02/04 13:55:00;;;;;;;6.07;3.20;;;9.70;99.90;;;;;;5070117;28;20020;-83
2022/02/04 14:00:38;;;;;;;7.55;4.10;;;9.60;99.90;;;;;;5085120;28;20024;-81
2022/02/04 14:03:18;;;;;;;6.53;3.88;;;9.50;99.90;;;;;;5077553;28;20021;-82
2022/02/04 14:05:58;;;;;;;7.18;4.25;;;9.50;99.90;;;;;;5076475;28;20122;-84
2022/02/04 14:08:31;;;;;;;6.13;4.20;;;9.40;99.90;;;;;;5076366;28;20047;-83
2022/02/04 14:10:59;;;;;;;11.43;4.03;;;9.40;99.90;;;;;;5076756;28;20032;-85
2022/02/04 14:13:27;;;;;;;6.75;4.07;;;9.30;99.90;;;;;;5075518;28;20077;-83
2022/02/04 14:15:58;;;;;;;7.55;4.43;;;9.30;99.90;;;;;;5075371;28;20020;-83
2022/02/04 14:18:26;;;;;;;6.18;3.92;;;9.20;99.90;;;;;;5075661;28;20020;-83
2022/02/04 14:20:51;;;;;;;8.73;4.40;;;9.20;99.90;;;;;;5058273;28;20024;-84
2022/02/04 14:23:17;;;;;;;10.77;4.80;;;9.20;99.90;;;;;;5058197;28;20027;-84
2022/02/04 14:26:05;;;;;;;10.18;3.97;;;9.20;99.90;;;;;;5093396;28;20036;-84
2022/02/04 14:28:51;;;;;;;8.85;5.22;;;9.10;99.90;;;;;;5078131;28;20112;-83
2022/02/04 14:36:32;;;;;;;9.20;5.00;;;9.00;99.90;;;;;;5075862;28;20071;-83
2022/02/04 15:02:48;;;;;;;3.38;1.35;;;8.30;99.90;;;;;;5097127;28;20067;-84
2022/02/04 15:05:19;;;;;;;0.93;0.40;;;8.20;99.90;;;;;;5062650;28;20218;-84
2022/02/04 15:07:47;;;;;;;3.63;0.50;;;8.10;99.90;;;;;;5079129;28;20078;-84
2022/02/04 15:10:25;;;;;;;2.67;0.40;;;7.90;99.90;;;;;;5078785;28;20054;-84
2022/02/04 15:19:08;;;;;;;1.27;0.30;;;7.50;99.90;;;;;;4999273;28;20037;-85
2022/02/04 15:21:34;;;;;;;1.02;0.30;;;7.30;99.90;;;;;;5059441;28;20126;-84
2022/02/04 15:24:10;;;;;;;0.32;0.32;;;7.30;99.90;;;;;;5078196;28;20032;-85
2022/02/04 15:26:35;;;;;;;1.38;0.50;;;7.20;99.90;;;;;;5078594;28;20089;-84
2022/02/04 15:29:08;;;;;;;0.50;0.40;;;7.10;99.90;;;;;;5061949;28;20464;-85
2022/02/04 15:34:10;;;;;;;1.45;0.47;;;7.00;99.90;;;;;;5097038;28;20083;-84
2022/02/04 15:36:44;;;;;;;0.68;0.40;;;7.00;99.90;;;;;;5061536;28;20543;-84
2022/02/04 15:39:13;;;;;;;4.95;0.90;;;6.90;99.90;;;;;;5079243;28;20031;-84
2022/02/04 15:41:40;;;;;;;1.15;0.90;;;6.90;99.90;;;;;;5078203;28;20024;-83
2022/02/04 16:02:44;;;;;;;1.08;0.80;;;6.50;99.90;;;;;;5080541;28;20040;-84
2022/02/04 16:05:11;;;;;;;1.27;1.17;;;6.50;99.90;;;;;;5032888;28;20582;-84
2022/02/04 16:07:38;;;;;;;3.05;1.20;;;6.50;99.90;;;;;;5041294;28;20044;-84
2022/02/04 16:10:20;;;;;;;2.55;1.40;;;6.50;99.90;;;;;;5069617;28;20024;-84
2022/02/04 16:15:56;;;;;;;3.08;2.10;;;6.50;99.90;;;;;;5055394;28;20544;-84
2022/02/04 16:18:26;;;;;;;3.60;2.60;;;6.50;99.90;;;;;;5067942;28;20017;-84
2022/02/04 16:21:19;;;;;;;2.63;1.90;;;6.50;99.90;;;;;;5097849;28;20047;-83
2022/02/04 16:24:01;;;;;;;2.05;1.70;;;6.50;99.90;;;;;;5100646;28;20035;-85
2022/02/04 16:28:56;;;;;;;2.50;1.90;;;6.50;99.90;;;;;;5095571;28;20027;-85
2022/02/04 16:31:22;;;;;;;5.57;1.95;;;6.40;99.90;;;;;;5094587;28;20024;-84
2022/02/04 16:33:49;;;;;;;3.33;1.80;;;6.40;99.90;;;;;;5072047;28;20051;-83
2022/02/04 16:36:20;;;;;;;4.60;1.90;;;6.40;99.90;;;;;;5073558;28;20041;-84
2022/02/04 16:38:55;;;;;;;3.05;2.03;;;6.40;99.90;;;;;;5074800;28;20031;-84
2022/02/04 16:41:29;;;;;;;3.63;1.80;;;6.40;99.90;;;;;;5073811;28;20059;-84
2022/02/04 16:43:55;;;;;;;3.78;2.20;;;6.40;99.90;;;;;;5073555;28;20409;-83
2022/02/04 16:46:21;;;;;;;2.42;1.70;;;6.30;99.90;;;;;;5074566;28;20085;-82
2022/02/04 16:48:47;;;;;;;3.88;2.00;;;6.30;99.90;;;;;;5076698;28;20028;-84
2022/02/04 16:51:13;;;;;;;7.00;2.08;;;6.30;99.90;;;;;;5072345;28;20021;-85
2022/02/04 16:53:45;;;;;;;3.45;1.60;;;6.30;99.90;;;;;;5049892;28;20763;-86
2022/02/04 16:56:12;;;;;;;3.25;1.70;;;6.20;99.90;;;;;;5058459;28;20017;-85
2022/02/04 16:58:39;;;;;;;4.47;2.00;;;6.20;99.90;;;;;;5052331;28;20025;-85
2022/02/04 17:01:07;;;;;;;2.53;1.58;;;6.20;99.90;;;;;;5050273;28;20040;-84
2022/02/04 17:03:41;;;;;;;4.60;1.95;;;6.20;99.90;;;;;;5065547;28;20431;-85
2022/02/04 17:06:09;;;;;;;6.20;1.90;;;6.20;99.90;;;;;;5037925;28;20052;-86
2022/02/04 17:09:08;;;;;;;;;;;;;;;;;;;;;
2022/02/04 17:11:41;;;;;;;5.60;2.65;;;6.20;99.90;;;;;;5054548;28;20044;-86
2022/02/04 17:14:24;;;;;;;4.63;2.58;;;6.20;99.90;;;;;;5064360;28;20385;-85
2022/02/04 17:16:50;;;;;;;4.55;2.83;;;6.20;99.90;;;;;;5056051;28;20025;-85
2022/02/04 17:19:23;;;;;;;6.22;3.90;;;6.20;99.90;;;;;;5040382;28;20115;-85
2022/02/04 17:21:50;;;;;;;7.30;3.08;;;6.20;99.90;;;;;;5056868;28;20029;-84
2022/02/04 17:24:16;;;;;;;4.95;2.80;;;6.20;99.90;;;;;;5068776;28;20027;-86
2022/02/04 17:26:42;;;;;;;3.95;2.55;;;6.20;99.90;;;;;;5094062;28;20043;-84
2022/02/04 17:29:09;;;;;;;5.15;3.00;;;6.20;99.90;;;;;;5094582;28;20039;-84
2022/02/04 17:31:36;;;;;;;4.38;2.50;;;6.20;99.90;;;;;;5075769;28;20752;-83
2022/02/04 17:34:03;;;;;;;4.18;2.47;;;6.20;99.90;;;;;;5059253;28;20036;-85
2022/02/04 17:36:37;;;;;;;5.85;2.33;;;6.20;99.90;;;;;;5094094;28;20056;-85
2022/02/04 17:39:17;;;;;;;4.30;1.30;;;6.20;99.90;;;;;;5076314;28;20036;-85
2022/02/04 17:41:44;;;;;;;6.50;1.35;;;6.20;99.90;;;;;;5094190;28;20024;-86
2022/02/04 17:44:10;;;;;;;3.88;1.25;;;6.10;99.90;;;;;;5076725;28;20051;-84
2022/02/04 17:46:36;;;;;;;8.05;2.60;;;6.10;99.90;;;;;;5076412;28;20016;-85
2022/02/04 17:49:15;;;;;;;5.60;2.10;;;6.10;99.90;;;;;;5059556;28;20098;-85
2022/02/04 17:54:13;;;;;;;5.80;1.50;;;6.00;99.90;;;;;;5060197;28;20044;-85
2022/02/04 18:07:12;;;;;;;3.20;0.90;;;5.80;99.90;;;;;;5093698;28;20071;-83
2022/02/04 18:09:40;;;;;;;8.88;1.45;;;5.80;99.90;;;;;;5075069;28;20020;-85
2022/02/04 18:12:08;;;;;;;5.35;1.40;;;5.70;99.90;;;;;;5078891;28;20024;-86
2022/02/04 18:14:33;;;;;;;4.53;1.40;;;5.70;99.90;;;;;;5093439;28;20024;-84
2022/02/04 18:16:59;;;;;;;8.88;1.48;;;5.70;99.90;;;;;;5058992;28;20487;-84
2022/02/04 18:19:25;;;;;;;5.63;1.55;;;5.70;99.90;;;;;;5074316;28;20036;-84
2022/02/04 18:21:50;;;;;;;11.75;2.00;;;5.70;99.90;;;;;;5075327;28;20031;-82
2022/02/04 18:24:17;;;;;;;5.90;1.50;;;5.60;99.90;;;;;;5074865;28;20040;-83
2022/02/04 18:26:44;;;;;;;14.27;3.33;;;5.70;99.90;;;;;;5058335;28;20028;-84
2022/02/04 18:29:11;;;;;;;8.63;1.98;;;5.70;99.90;;;;;;5093570;28;20032;-88
2022/02/04 18:31:37;;;;;;;6.47;1.50;;;5.70;99.90;;;;;;5076556;28;20020;-84
2022/02/04 18:34:05;;;;;;;10.48;1.90;;;5.70;99.90;;;;;;5093525;28;20085;-83
2022/02/04 18:36:31;;;;;;;6.53;1.95;;;5.70;99.90;;;;;;5074670;28;20048;-84
2022/02/04 18:44:18;;;;;;;9.88;2.35;;;5.60;99.90;;;;;;5078205;28;20040;-83
2022/02/04 18:49:57;;;;;;;7.90;1.73;;;5.60;99.90;;;;;;5093731;28;20028;-83
2022/02/04 18:55:15;;;;;;;8.45;2.90;;;5.60;99.90;;;;;;5076156;28;20047;-84
2022/02/04 18:57:21;;;;;;;12.05;2.25;;;5.60;99.90;;;;;;5083496;28;20025;-83
2022/02/04 19:00:00;;;;;;;14.95;2.60;;;5.60;99.90;;;;;;5040424;28;20054;-82
2022/02/04 19:02:26;;;;;;;11.15;2.53;;;5.60;99.90;;;;;;5055727;28;20028;-85
2022/02/04 19:05:07;;;;;;;12.77;2.60;;;5.60;99.90;;;;;;5053922;28;20101;-82
2022/02/04 19:07:52;;;;;;;7.88;2.67;;;5.60;99.90;;;;;;5054934;28;20078;-86
2022/02/04 19:10:17;;;;;;;12.73;3.97;;;5.60;99.90;;;;;;5070793;28;20105;-84
2022/02/04 19:12:55;;;;;;;21.00;5.43;;;5.70;99.90;;;;;;5072390;28;20052;-83
2022/02/04 19:18:01;;;;;;;13.43;3.72;;;5.70;99.90;;;;;;5055450;28;20040;-83
2022/02/04 19:20:33;;;;;;;9.68;2.90;;;5.60;99.90;;;;;;5049310;28;20059;-83
2022/02/04 19:23:20;;;;;;;12.88;4.05;;;5.70;99.90;;;;;;5071533;28;20032;-83
2022/02/04 19:25:47;;;;;;;14.45;3.78;;;5.70;99.90;;;;;;5072150;28;20496;-83
2022/02/04 19:28:13;;;;;;;10.48;3.40;;;5.60;99.90;;;;;;5055087;28;20093;-83
2022/02/04 19:30:46;;;;;;;7.30;2.72;;;5.60;99.90;;;;;;5072822;28;20032;-84
2022/02/04 19:33:12;;;;;;;14.32;3.35;;;5.60;99.90;;;;;;5076010;28;20386;-84
2022/02/04 19:35:38;;;;;;;11.57;3.50;;;5.60;99.90;;;;;;5075722;28;20048;-84
2022/02/04 19:38:06;;;;;;;12.15;3.63;;;5.60;99.90;;;;;;5076072;28;20052;-84
2022/02/04 19:40:32;;;;;;;13.02;3.95;;;5.60;99.90;;;;;;5058466;28;20076;-84
2022/02/04 19:42:58;;;;;;;12.10;3.85;;;5.50;99.90;;;;;;5075502;28;20107;-83
2022/02/04 19:45:30;;;;;;;12.75;4.68;;;5.50;99.90;;;;;;5075281;28;20463;-84
2022/02/04 19:48:06;;;;;;;14.60;5.38;;;5.50;99.90;;;;;;5075238;28;20024;-83
2022/02/04 19:51:03;;;;;;;15.23;4.60;;;5.50;99.90;;;;;;5060065;28;20036;-83
2022/02/04 19:53:36;;;;;;;14.63;4.65;;;5.50;99.90;;;;;;5076074;28;20027;-84
2022/02/04 20:23:37;;;;;;;13.23;6.40;;;5.50;99.90;;;;;;5076371;28;20039;-83
2022/02/04 20:26:05;;;;;;;15.45;8.05;;;5.50;99.90;;;;;;5059452;28;20039;-84
2022/02/04 20:28:32;;;;;;;19.35;7.00;;;5.50;99.90;;;;;;5075955;28;20092;-83
2022/02/04 20:30:59;;;;;;;14.75;6.70;;;5.50;99.90;;;;;;5074864;28;20384;-83